sensor_id;sensor_type;location;lat;lon;timestamp;P1;durP1;ratioP1;P2;durP2;ratioP2
50649;SDS011;36621;60.058;30.346;2023-10-31T00:01:56;15.75;;;10.75;;
50649;SDS011;36621;60.058;30.346;2023-10-31T00:09:28;17.58;;;11.52;;
50649;SDS011;36621;60.058;30.346;2023-10-31T00:17:01;15.30;;;11.10;;
50649;SDS011;36621;60.058;30.346;2023-10-31T00:24:33;14.43;;;9.68;;
50649;SDS011;36621;60.058;30.346;2023-10-31T00:32:06;17.00;;;9.55;;
50649;SDS011;36621;60.058;30.346;2023-10-31T00:39:39;16.80;;;9.65;;
50649;SDS011;36621;60.058;30.346;2023-10-31T00:47:14;13.30;;;9.50;;
50649;SDS011;36621;60.058;30.346;2023-10-31T00:54:46;18.10;;;9.75;;
50649;SDS011;36621;60.058;30.346;2023-10-31T01:02:21;18.70;;;14.05;;
50649;SDS011;36621;60.058;30.346;2023-10-31T01:09:53;20.15;;;14.90;;
50649;SDS011;36621;60.058;30.346;2023-10-31T01:17:26;19.85;;;13.95;;
50649;SDS011;36621;60.058;30.346;2023-10-31T01:24:58;20.70;;;13.88;;
50649;SDS011;36621;60.058;30.346;2023-10-31T01:32:31;18.58;;;12.38;;
50649;SDS011;36621;60.058;30.346;2023-10-31T01:40:04;18.15;;;12.20;;
50649;SDS011;36621;60.058;30.346;2023-10-31T01:47:39;18.70;;;12.30;;
50649;SDS011;36621;60.058;30.346;2023-10-31T01:55:11;24.02;;;13.40;;
50649;SDS011;36621;60.058;30.346;2023-10-31T02:02:47;21.48;;;12.98;;
50649;SDS011;36621;60.058;30.346;2023-10-31T02:10:20;30.85;;;12.25;;
50649;SDS011;36621;60.058;30.346;2023-10-31T02:17:53;16.77;;;10.10;;
50649;SDS011;36621;60.058;30.346;2023-10-31T02:25:26;17.73;;;9.68;;
50649;SDS011;36621;60.058;30.346;2023-10-31T02:32:58;19.25;;;10.70;;
50649;SDS011;36621;60.058;30.346;2023-10-31T02:40:32;27.02;;;11.32;;
50649;SDS011;36621;60.058;30.346;2023-10-31T02:48:04;16.02;;;10.10;;
50649;SDS011;36621;60.058;30.346;2023-10-31T02:55:37;13.57;;;8.15;;
50649;SDS011;36621;60.058;30.346;2023-10-31T03:03:09;15.35;;;9.00;;
50649;SDS011;36621;60.058;30.346;2023-10-31T03:10:43;15.05;;;8.70;;
50649;SDS011;36621;60.058;30.346;2023-10-31T03:18:15;14.43;;;8.95;;
50649;SDS011;36621;60.058;30.346;2023-10-31T03:25:48;16.30;;;9.35;;
50649;SDS011;36621;60.058;30.346;2023-10-31T03:33:20;19.77;;;9.77;;
50649;SDS011;36621;60.058;30.346;2023-10-31T03:40:53;15.60;;;9.15;;
50649;SDS011;36621;60.058;30.346;2023-10-31T03:48:25;20.15;;;10.00;;
50649;SDS011;36621;60.058;30.346;2023-10-31T03:56:00;21.27;;;12.38;;
50649;SDS011;36621;60.058;30.346;2023-10-31T04:03:33;17.33;;;11.35;;
50649;SDS011;36621;60.058;30.346;2023-10-31T04:11:06;16.55;;;10.27;;
50649;SDS011;36621;60.058;30.346;2023-10-31T04:18:38;19.20;;;11.05;;
50649;SDS011;36621;60.058;30.346;2023-10-31T04:26:11;18.55;;;11.68;;
50649;SDS011;36621;60.058;30.346;2023-10-31T04:33:44;16.33;;;10.35;;
50649;SDS011;36621;60.058;30.346;2023-10-31T04:41:17;19.23;;;10.38;;
50649;SDS011;36621;60.058;30.346;2023-10-31T04:48:52;16.92;;;9.75;;
50649;SDS011;36621;60.058;30.346;2023-10-31T04:56:25;13.52;;;7.85;;
50649;SDS011;36621;60.058;30.346;2023-10-31T05:03:57;13.43;;;7.03;;
50649;SDS011;36621;60.058;30.346;2023-10-31T05:11:30;13.45;;;7.10;;
50649;SDS011;36621;60.058;30.346;2023-10-31T05:19:02;11.02;;;6.88;;
50649;SDS011;36621;60.058;30.346;2023-10-31T05:26:36;12.13;;;6.03;;
50649;SDS011;36621;60.058;30.346;2023-10-31T05:34:11;9.77;;;5.15;;
50649;SDS011;36621;60.058;30.346;2023-10-31T05:41:44;9.70;;;5.68;;
50649;SDS011;36621;60.058;30.346;2023-10-31T05:49:16;8.27;;;4.97;;
50649;SDS011;36621;60.058;30.346;2023-10-31T05:56:49;8.98;;;5.97;;
50649;SDS011;36621;60.058;30.346;2023-10-31T06:04:22;9.68;;;6.00;;
50649;SDS011;36621;60.058;30.346;2023-10-31T06:11:59;8.13;;;5.93;;
50649;SDS011;36621;60.058;30.346;2023-10-31T06:19:34;10.80;;;6.28;;
50649;SDS011;36621;60.058;30.346;2023-10-31T06:27:09;12.13;;;6.50;;
50649;SDS011;36621;60.058;30.346;2023-10-31T06:34:41;11.60;;;7.32;;
50649;SDS011;36621;60.058;30.346;2023-10-31T06:42:14;7.38;;;6.00;;
50649;SDS011;36621;60.058;30.346;2023-10-31T15:56:31;5.68;;;4.30;;
50649;SDS011;36621;60.058;30.346;2023-10-31T16:04:04;8.93;;;5.10;;
50649;SDS011;36621;60.058;30.346;2023-10-31T16:11:38;10.10;;;5.03;;
50649;SDS011;36621;60.058;30.346;2023-10-31T16:19:10;10.55;;;5.35;;
50649;SDS011;36621;60.058;30.346;2023-10-31T16:26:44;7.00;;;4.82;;
50649;SDS011;36621;60.058;30.346;2023-10-31T16:34:16;10.80;;;5.85;;
50649;SDS011;36621;60.058;30.346;2023-10-31T16:41:49;12.60;;;6.97;;
50649;SDS011;36621;60.058;30.346;2023-10-31T16:49:21;11.25;;;6.53;;
50649;SDS011;36621;60.058;30.346;2023-10-31T16:56:55;14.80;;;6.82;;
50649;SDS011;36621;60.058;30.346;2023-10-31T17:04:27;9.25;;;5.60;;
50649;SDS011;36621;60.058;30.346;2023-10-31T17:12:01;9.43;;;6.60;;
50649;SDS011;36621;60.058;30.346;2023-10-31T17:19:52;9.45;;;4.10;;
50649;SDS011;36621;60.058;30.346;2023-10-31T17:27:27;5.85;;;3.90;;
50649;SDS011;36621;60.058;30.346;2023-10-31T17:35:00;5.97;;;3.50;;
50649;SDS011;36621;60.058;30.346;2023-10-31T17:42:35;4.85;;;2.42;;
50649;SDS011;36621;60.058;30.346;2023-10-31T17:50:08;4.57;;;3.35;;
50649;SDS011;36621;60.058;30.346;2023-10-31T17:57:41;5.28;;;2.75;;
50649;SDS011;36621;60.058;30.346;2023-10-31T18:05:14;4.40;;;2.55;;
50649;SDS011;36621;60.058;30.346;2023-10-31T18:12:47;2.50;;;1.92;;
50649;SDS011;36621;60.058;30.346;2023-10-31T18:20:22;4.93;;;2.60;;
50649;SDS011;36621;60.058;30.346;2023-10-31T18:27:56;2.55;;;1.80;;
50649;SDS011;36621;60.058;30.346;2023-10-31T18:35:32;3.90;;;1.60;;
50649;SDS011;36621;60.058;30.346;2023-10-31T18:43:12;4.65;;;1.90;;
50649;SDS011;36621;60.058;30.346;2023-10-31T18:50:44;2.97;;;2.20;;
50649;SDS011;36621;60.058;30.346;2023-10-31T18:58:23;1.70;;;1.60;;
50649;SDS011;36621;60.058;30.346;2023-10-31T19:05:57;6.47;;;1.55;;
50649;SDS011;36621;60.058;30.346;2023-10-31T19:13:30;2.25;;;1.40;;
50649;SDS011;36621;60.058;30.346;2023-10-31T19:21:03;2.75;;;1.70;;
50649;SDS011;36621;60.058;30.346;2023-10-31T19:28:37;2.80;;;1.45;;
50649;SDS011;36621;60.058;30.346;2023-10-31T19:36:09;2.33;;;1.52;;
50649;SDS011;36621;60.058;30.346;2023-10-31T19:43:42;2.15;;;1.48;;
50649;SDS011;36621;60.058;30.346;2023-10-31T19:51:15;1.90;;;1.35;;
50649;SDS011;36621;60.058;30.346;2023-10-31T19:58:51;2.20;;;1.25;;
50649;SDS011;36621;60.058;30.346;2023-10-31T20:06:24;2.35;;;1.35;;
50649;SDS011;36621;60.058;30.346;2023-10-31T20:13:57;1.00;;;0.88;;
50649;SDS011;36621;60.058;30.346;2023-10-31T20:21:32;1.65;;;0.90;;
50649;SDS011;36621;60.058;30.346;2023-10-31T20:29:05;4.18;;;1.13;;
50649;SDS011;36621;60.058;30.346;2023-10-31T20:36:37;1.55;;;1.10;;
50649;SDS011;36621;60.058;30.346;2023-10-31T20:44:13;0.75;;;0.75;;
50649;SDS011;36621;60.058;30.346;2023-10-31T20:51:46;0.90;;;0.82;;
50649;SDS011;36621;60.058;30.346;2023-10-31T20:59:19;0.60;;;0.60;;
50649;SDS011;36621;60.058;30.346;2023-10-31T21:06:52;1.23;;;0.95;;
50649;SDS011;36621;60.058;30.346;2023-10-31T21:14:25;1.40;;;0.82;;
50649;SDS011;36621;60.058;30.346;2023-10-31T21:21:57;2.55;;;1.20;;
50649;SDS011;36621;60.058;30.346;2023-10-31T21:29:32;1.67;;;1.08;;
50649;SDS011;36621;60.058;30.346;2023-10-31T21:37:07;9.02;;;1.20;;
50649;SDS011;36621;60.058;30.346;2023-10-31T21:44:41;0.95;;;0.70;;
50649;SDS011;36621;60.058;30.346;2023-10-31T21:52:14;0.60;;;0.60;;
50649;SDS011;36621;60.058;30.346;2023-10-31T21:59:47;0.80;;;0.70;;
50649;SDS011;36621;60.058;30.346;2023-10-31T22:07:21;0.68;;;0.68;;
50649;SDS011;36621;60.058;30.346;2023-10-31T22:14:57;0.57;;;0.57;;
50649;SDS011;36621;60.058;30.346;2023-10-31T22:22:32;1.23;;;0.80;;
50649;SDS011;36621;60.058;30.346;2023-10-31T22:30:09;1.73;;;1.40;;
50649;SDS011;36621;60.058;30.346;2023-10-31T22:37:42;1.35;;;0.73;;
50649;SDS011;36621;60.058;30.346;2023-10-31T22:45:15;1.45;;;0.70;;
50649;SDS011;36621;60.058;30.346;2023-10-31T22:52:48;0.90;;;0.70;;
50649;SDS011;36621;60.058;30.346;2023-10-31T23:00:21;0.70;;;0.60;;
50649;SDS011;36621;60.058;30.346;2023-10-31T23:07:57;0.50;;;0.50;;
50649;SDS011;36621;60.058;30.346;2023-10-31T23:15:34;0.60;;;0.60;;
50649;SDS011;36621;60.058;30.346;2023-10-31T23:23:06;1.10;;;0.80;;
50649;SDS011;36621;60.058;30.346;2023-10-31T23:30:39;2.85;;;1.10;;
50649;SDS011;36621;60.058;30.346;2023-10-31T23:38:11;0.75;;;0.73;;
50649;SDS011;36621;60.058;30.346;2023-10-31T23:45:45;2.97;;;1.17;;
50649;SDS011;36621;60.058;30.346;2023-10-31T23:53:17;1.17;;;0.70;;
